createdAt,value
2023-03-31T00:01:11.194Z,65.98
2023-03-31T00:03:44.550Z,65.82
2023-03-31T00:06:18.793Z,65.79
2023-03-31T00:08:52.389Z,65.62
2023-03-31T00:11:23.375Z,65.66
2023-03-31T00:13:51.674Z,65.50
2023-03-31T00:16:20.514Z,65.64
2023-03-31T00:18:51.122Z,65.29
2023-03-31T00:21:34.021Z,65.22
2023-03-31T00:24:04.448Z,65.20
2023-03-31T00:26:35.006Z,64.30
2023-03-31T00:29:04.595Z,65.19
2023-03-31T00:31:33.201Z,65.26
2023-03-31T00:34:01.783Z,64.95
2023-03-31T00:36:31.237Z,65.19
2023-03-31T00:39:02.707Z,64.39
2023-03-31T00:41:31.738Z,64.27
2023-03-31T00:44:14.923Z,64.54
2023-03-31T00:46:48.362Z,65.19
2023-03-31T00:49:23.099Z,65.18
2023-03-31T00:51:54.160Z,65.25
2023-03-31T00:54:26.063Z,65.28
2023-03-31T00:56:58.789Z,65.69
2023-03-31T00:59:33.194Z,65.21
2023-03-31T01:02:04.796Z,65.30
2023-03-31T01:04:36.662Z,64.98
2023-03-31T01:07:12.629Z,64.84
2023-03-31T01:09:42.161Z,64.25
2023-03-31T01:12:12.524Z,64.64
2023-03-31T01:14:42.641Z,65.03
2023-03-31T01:17:11.460Z,64.65
2023-03-31T01:19:56.523Z,64.63
2023-03-31T01:23:00.661Z,64.75
2023-03-31T01:25:57.892Z,64.80
2023-03-31T01:28:35.563Z,65.07
2023-03-31T01:31:47.346Z,64.91
2023-03-31T01:35:04.068Z,65.35
2023-03-31T01:38:17.937Z,64.83
2023-03-31T01:41:01.650Z,65.37
2023-03-31T01:43:38.248Z,65.43
2023-03-31T01:46:14.777Z,65.39
2023-03-31T01:48:51.071Z,65.16
2023-03-31T01:51:24.747Z,65.09
2023-03-31T01:53:56.888Z,65.64
2023-03-31T01:56:32.807Z,65.52
2023-03-31T01:59:04.382Z,65.23
2023-03-31T02:01:39.380Z,65.38
2023-03-31T02:04:14.735Z,65.65
2023-03-31T02:06:47.913Z,65.83
2023-03-31T02:09:19.964Z,65.95
2023-03-31T02:11:51.374Z,66.20
2023-03-31T02:14:23.929Z,65.99
2023-03-31T02:16:58.515Z,66.37
2023-03-31T02:19:29.397Z,66.29
2023-03-31T02:21:57.770Z,66.55
2023-03-31T02:24:28.951Z,66.47
2023-03-31T02:27:06.590Z,66.54
2023-03-31T02:29:35.568Z,66.69
2023-03-31T02:32:11.194Z,66.78
2023-03-31T02:34:39.601Z,67.00
2023-03-31T02:37:08.653Z,67.02
2023-03-31T02:39:40.496Z,67.26
2023-03-31T02:42:10.907Z,67.31
2023-03-31T02:44:41.090Z,67.29
2023-03-31T02:47:12.663Z,67.22
2023-03-31T02:49:46.417Z,67.07
2023-03-31T02:52:31.983Z,67.86
2023-03-31T02:55:28.301Z,67.70
2023-03-31T02:58:30.712Z,67.53
2023-03-31T03:01:15.999Z,67.37
2023-03-31T03:03:54.631Z,67.66
2023-03-31T03:06:38.756Z,67.45
2023-03-31T03:09:18.840Z,67.52
2023-03-31T03:11:53.048Z,67.85
2023-03-31T03:14:30.168Z,67.68
2023-03-31T03:17:03.969Z,67.90
2023-03-31T03:19:32.698Z,67.85
2023-03-31T03:22:00.960Z,67.93
2023-03-31T03:24:30.079Z,67.23
2023-03-31T03:26:58.649Z,66.84
2023-03-31T03:29:28.919Z,65.91
2023-03-31T03:31:57.166Z,66.58
2023-03-31T03:34:25.755Z,66.11
2023-03-31T03:36:54.167Z,66.50
2023-03-31T03:39:22.626Z,66.55
2023-03-31T03:41:50.940Z,66.16
2023-03-31T03:44:19.250Z,66.45
2023-03-31T03:46:49.082Z,66.21
2023-03-31T03:49:17.665Z,66.30
2023-03-31T03:51:46.379Z,66.25
2023-03-31T03:54:14.960Z,65.18
2023-03-31T03:56:43.262Z,65.54
2023-03-31T03:59:12.875Z,66.03
2023-03-31T04:01:41.531Z,66.42
2023-03-31T04:04:11.516Z,66.42
2023-03-31T04:06:39.983Z,66.79
2023-03-31T04:09:08.390Z,66.75
2023-03-31T04:11:36.785Z,66.37
2023-03-31T04:14:05.103Z,66.73
2023-03-31T04:16:34.755Z,66.87
2023-03-31T04:19:03.966Z,66.81
2023-03-31T04:21:35.381Z,66.86
2023-03-31T04:24:04.897Z,67.04
2023-03-31T04:26:43.278Z,67.00
2023-03-31T04:29:13.723Z,66.81
2023-03-31T04:31:44.624Z,67.06
2023-03-31T04:34:14.459Z,66.81
2023-03-31T04:36:47.462Z,67.04
2023-03-31T04:39:17.574Z,67.09
2023-03-31T04:41:46.611Z,67.18
2023-03-31T04:44:14.872Z,67.25
2023-03-31T04:46:43.188Z,67.11
2023-03-31T04:49:11.486Z,67.39
2023-03-31T04:51:39.809Z,67.52
2023-03-31T04:54:09.751Z,67.35
2023-03-31T04:56:38.230Z,67.56
2023-03-31T04:59:08.319Z,67.22
2023-03-31T05:01:37.293Z,67.55
2023-03-31T05:04:06.876Z,67.70
2023-03-31T05:06:35.555Z,68.26
2023-03-31T05:09:03.919Z,68.30
2023-03-31T05:11:33.620Z,68.30
2023-03-31T05:14:01.950Z,68.24
2023-03-31T05:16:30.328Z,68.13
2023-03-31T05:18:58.701Z,67.79
2023-03-31T05:21:30.673Z,67.52
2023-03-31T05:23:59.244Z,67.44
2023-03-31T05:26:28.979Z,67.24
2023-03-31T05:28:59.909Z,67.22
2023-03-31T05:31:28.365Z,67.15
2023-03-31T05:33:57.379Z,67.05
2023-03-31T05:36:27.347Z,67.30
2023-03-31T05:38:56.522Z,67.09
2023-03-31T05:41:25.149Z,66.92
2023-03-31T05:43:53.439Z,66.73
2023-03-31T05:46:23.282Z,66.58
2023-03-31T05:48:51.748Z,66.65
2023-03-31T05:51:20.304Z,66.76
2023-03-31T05:53:48.669Z,66.52
2023-03-31T05:56:17.007Z,66.87
2023-03-31T05:58:45.312Z,67.09
2023-03-31T06:01:23.141Z,66.90
2023-03-31T06:03:52.945Z,67.09
2023-03-31T06:06:21.557Z,67.18
2023-03-31T06:08:50.247Z,67.26
2023-03-31T06:11:20.685Z,67.22
2023-03-31T06:13:49.896Z,67.13
2023-03-31T06:16:19.296Z,67.03
2023-03-31T06:18:47.852Z,67.12
2023-03-31T06:21:19.427Z,67.16
2023-03-31T06:23:48.465Z,67.03
2023-03-31T06:26:18.527Z,67.05
2023-03-31T06:28:48.137Z,66.98
2023-03-31T06:31:19.034Z,66.72
2023-03-31T06:33:48.127Z,66.51
2023-03-31T06:36:21.269Z,66.41
2023-03-31T06:38:50.203Z,65.93
2023-03-31T06:41:20.765Z,66.26
2023-03-31T06:43:49.193Z,66.51
2023-03-31T06:46:18.302Z,66.64
2023-03-31T06:48:47.497Z,66.56
2023-03-31T06:51:17.825Z,66.56
2023-03-31T06:53:46.217Z,66.47
2023-03-31T06:56:14.666Z,66.92
2023-03-31T06:58:43.152Z,66.84
2023-03-31T07:01:12.113Z,66.76
2023-03-31T07:03:40.805Z,66.79
2023-03-31T07:06:09.457Z,66.73
2023-03-31T07:08:39.239Z,66.53
2023-03-31T07:11:07.715Z,66.43
2023-03-31T07:13:36.343Z,66.63
2023-03-31T07:16:07.820Z,66.73
2023-03-31T07:18:37.264Z,66.60
2023-03-31T07:21:09.776Z,66.62
2023-03-31T07:23:40.460Z,66.77
2023-03-31T07:26:09.314Z,66.54
2023-03-31T07:28:37.718Z,66.57
2023-03-31T07:31:12.878Z,65.98
2023-03-31T07:33:41.361Z,66.21
2023-03-31T07:36:13.845Z,66.06
2023-03-31T07:38:46.013Z,65.50
2023-03-31T07:41:15.817Z,65.62
2023-03-31T07:43:44.705Z,66.19
2023-03-31T07:46:18.476Z,66.01
2023-03-31T07:48:47.942Z,66.08
2023-03-31T07:51:18.270Z,65.96
2023-03-31T07:53:49.517Z,65.83
2023-03-31T07:56:18.414Z,66.02
2023-03-31T07:58:49.042Z,66.26
2023-03-31T08:01:19.090Z,66.43
2023-03-31T08:03:48.999Z,65.97
2023-03-31T08:06:20.780Z,66.01
2023-03-31T08:08:51.126Z,65.97
2023-03-31T08:11:21.347Z,65.85
2023-03-31T08:13:49.921Z,65.84
2023-03-31T08:16:18.534Z,66.04
2023-03-31T08:18:47.009Z,65.82
2023-03-31T08:21:15.433Z,66.09
2023-03-31T08:23:43.845Z,66.07
2023-03-31T08:26:17.875Z,65.85
2023-03-31T08:28:48.739Z,66.25
2023-03-31T08:31:19.108Z,66.27
2023-03-31T08:33:48.156Z,66.23
2023-03-31T08:36:16.499Z,66.35
2023-03-31T08:38:48.168Z,66.39
2023-03-31T08:41:29.248Z,66.33
2023-03-31T08:43:59.546Z,66.34
2023-03-31T08:46:31.630Z,66.03
2023-03-31T08:49:01.379Z,66.15
2023-03-31T08:51:32.853Z,65.97
2023-03-31T08:54:04.377Z,65.05
2023-03-31T08:56:38.028Z,65.75
2023-03-31T08:59:07.173Z,65.71
2023-03-31T09:01:55.563Z,66.07
2023-03-31T09:04:47.340Z,66.08
2023-03-31T09:07:21.530Z,66.20
2023-03-31T09:09:59.956Z,65.96
2023-03-31T09:12:40.789Z,66.37
2023-03-31T09:15:15.523Z,66.46
2023-03-31T09:17:47.776Z,66.58
2023-03-31T09:20:21.354Z,66.41
2023-03-31T09:22:53.800Z,66.40
2023-03-31T09:25:27.442Z,66.41
2023-03-31T09:27:58.750Z,66.78
2023-03-31T09:30:29.778Z,66.69
2023-03-31T09:33:12.861Z,66.57
2023-03-31T09:35:42.283Z,66.46
2023-03-31T09:38:13.242Z,66.52
2023-03-31T09:40:41.915Z,66.67
2023-03-31T09:43:21.799Z,66.41
2023-03-31T09:46:07.545Z,66.55
2023-03-31T09:48:39.194Z,66.82
2023-03-31T09:51:11.570Z,66.75
2023-03-31T09:53:45.450Z,66.94
2023-03-31T09:56:14.394Z,67.14
2023-03-31T09:58:46.286Z,67.05
2023-03-31T10:01:16.665Z,67.01
2023-03-31T10:03:52.281Z,66.83
2023-03-31T10:06:21.688Z,66.88
2023-03-31T10:08:53.117Z,67.06
2023-03-31T10:11:22.156Z,67.11
2023-03-31T10:13:59.122Z,67.24
2023-03-31T10:16:31.627Z,66.91
2023-03-31T10:19:14.949Z,66.99
2023-03-31T10:21:48.257Z,66.03
2023-03-31T10:24:20.276Z,66.65
2023-03-31T10:26:50.743Z,66.67
2023-03-31T10:29:25.792Z,66.51
2023-03-31T10:31:54.551Z,66.55
2023-03-31T10:34:25.818Z,66.89
2023-03-31T10:36:54.273Z,64.07
2023-03-31T10:39:30.400Z,61.10
2023-03-31T10:41:58.876Z,62.69
2023-03-31T10:44:39.437Z,61.58
2023-03-31T10:47:20.068Z,62.60
2023-03-31T10:49:51.711Z,63.48
2023-03-31T10:52:23.101Z,63.83
2023-03-31T10:54:54.684Z,63.81
2023-03-31T10:57:34.242Z,63.36
2023-03-31T11:00:15.542Z,62.73
2023-03-31T11:03:10.077Z,62.91
2023-03-31T11:05:47.680Z,63.46
2023-03-31T11:08:33.858Z,64.28
2023-03-31T11:11:17.849Z,64.31
2023-03-31T11:13:49.908Z,64.68
2023-03-31T11:16:26.673Z,64.43
2023-03-31T11:19:13.135Z,64.49
2023-03-31T11:21:53.797Z,64.19
2023-03-31T11:24:38.372Z,63.96
2023-03-31T11:27:20.991Z,64.38
2023-03-31T11:29:53.206Z,64.35
2023-03-31T11:32:42.611Z,63.71
2023-03-31T11:35:33.097Z,63.90
2023-03-31T11:38:24.795Z,61.64
2023-03-31T11:41:01.554Z,62.14
2023-03-31T11:43:36.779Z,62.52
2023-03-31T11:46:10.346Z,62.23
2023-03-31T11:48:44.836Z,62.89
2023-03-31T11:51:16.316Z,63.08
2023-03-31T11:53:46.443Z,63.16
2023-03-31T11:56:16.301Z,62.75
2023-03-31T11:58:48.552Z,62.12
2023-03-31T12:01:26.189Z,60.98
2023-03-31T12:04:01.831Z,61.20
2023-03-31T12:06:33.123Z,59.59
2023-03-31T12:09:12.441Z,60.02
2023-03-31T12:11:48.305Z,59.91
2023-03-31T12:14:29.366Z,58.74
2023-03-31T12:17:03.524Z,58.01
2023-03-31T12:19:37.864Z,59.03
2023-03-31T12:22:12.865Z,58.41
2023-03-31T12:24:41.319Z,58.38
2023-03-31T12:27:15.528Z,59.15
2023-03-31T12:29:48.200Z,59.68
2023-03-31T12:32:19.633Z,60.02
2023-03-31T12:34:57.842Z,59.77
2023-03-31T12:37:49.052Z,59.41
2023-03-31T12:40:31.357Z,59.29
2023-03-31T12:43:24.596Z,59.06
2023-03-31T12:46:04.130Z,59.33
2023-03-31T12:48:55.416Z,59.16
2023-03-31T12:51:41.943Z,59.97
2023-03-31T12:54:21.189Z,59.59
2023-03-31T12:57:14.479Z,59.82
2023-03-31T12:59:44.629Z,59.51
2023-03-31T13:02:26.354Z,59.25
2023-03-31T13:04:54.845Z,59.80
2023-03-31T13:07:42.761Z,60.04
2023-03-31T13:10:29.950Z,60.30
2023-03-31T13:13:03.474Z,59.56
2023-03-31T13:15:33.298Z,59.81
2023-03-31T13:18:03.474Z,60.07
2023-03-31T13:20:37.862Z,60.64
2023-03-31T13:23:19.902Z,60.88
2023-03-31T13:25:52.488Z,60.49
2023-03-31T13:28:29.347Z,59.94
2023-03-31T13:31:02.156Z,60.49
2023-03-31T13:33:33.937Z,61.05
2023-03-31T13:36:52.885Z,61.57
2023-03-31T13:40:02.274Z,60.74
2023-03-31T13:43:00.995Z,59.54
2023-03-31T13:46:03.813Z,59.74
2023-03-31T13:48:41.594Z,60.82
2023-03-31T13:51:22.569Z,61.52
2023-03-31T13:54:17.084Z,61.60
2023-03-31T13:57:17.201Z,62.08
2023-03-31T14:00:12.088Z,61.20
2023-03-31T14:03:08.866Z,61.30
2023-03-31T14:05:40.624Z,61.87
2023-03-31T14:08:15.007Z,60.77
2023-03-31T14:10:44.546Z,60.92
2023-03-31T14:13:18.213Z,60.99
2023-03-31T14:15:50.771Z,61.02
2023-03-31T14:18:26.511Z,60.29
2023-03-31T14:21:17.975Z,59.77
2023-03-31T14:23:57.117Z,59.99
2023-03-31T14:26:42.437Z,59.20
2023-03-31T14:29:21.460Z,59.43
2023-03-31T14:32:00.257Z,60.37
2023-03-31T14:34:45.083Z,60.55
2023-03-31T14:37:17.992Z,60.77
2023-03-31T14:39:48.587Z,60.80
2023-03-31T14:42:19.287Z,61.56
2023-03-31T14:44:49.777Z,61.82
2023-03-31T14:47:23.025Z,60.62
2023-03-31T14:50:01.245Z,60.70
2023-03-31T14:52:32.429Z,60.77
2023-03-31T14:55:01.845Z,60.19
2023-03-31T14:57:33.822Z,59.64
2023-03-31T15:00:08.075Z,60.52
2023-03-31T15:02:39.377Z,60.59
2023-03-31T15:05:11.315Z,60.97
2023-03-31T15:07:42.753Z,60.77
2023-03-31T15:10:20.659Z,60.93
2023-03-31T15:12:49.579Z,61.20
2023-03-31T15:15:25.066Z,61.06
2023-03-31T15:17:53.517Z,61.34
2023-03-31T15:20:35.095Z,60.98
2023-03-31T15:23:07.963Z,60.11
2023-03-31T15:25:41.427Z,58.20
2023-03-31T15:28:15.413Z,58.83
2023-03-31T15:30:48.894Z,59.33
2023-03-31T15:33:22.262Z,59.87
2023-03-31T15:35:50.851Z,60.40
2023-03-31T15:38:19.530Z,60.38
2023-03-31T15:40:54.937Z,59.86
2023-03-31T15:43:31.097Z,59.90
2023-03-31T15:46:02.215Z,60.13
2023-03-31T15:48:34.688Z,60.56
2023-03-31T15:51:06.830Z,60.51
2023-03-31T15:53:39.371Z,60.45
2023-03-31T15:56:08.444Z,60.75
2023-03-31T15:58:57.482Z,60.46
2023-03-31T16:01:32.963Z,60.95
2023-03-31T16:04:03.230Z,60.77
2023-03-31T16:06:45.564Z,60.39
2023-03-31T16:09:18.722Z,60.44
2023-03-31T16:11:50.793Z,60.69
2023-03-31T16:14:23.954Z,59.83
2023-03-31T16:17:00.360Z,60.64
2023-03-31T16:19:32.088Z,60.66
2023-03-31T16:22:02.398Z,60.60
2023-03-31T16:24:33.855Z,60.63
2023-03-31T16:27:06.658Z,60.30
2023-03-31T16:29:37.179Z,60.32
2023-03-31T16:32:12.582Z,60.42
2023-03-31T16:34:59.770Z,60.72
2023-03-31T16:37:28.773Z,61.04
2023-03-31T16:39:57.870Z,60.82
2023-03-31T16:42:26.307Z,60.92
2023-03-31T16:47:35.012Z,61.40
2023-03-31T16:50:07.698Z,60.79
2023-03-31T16:52:37.190Z,60.76
2023-03-31T16:55:06.516Z,60.32
2023-03-31T16:57:35.083Z,61.22
2023-03-31T17:00:03.729Z,61.48
2023-03-31T17:02:34.858Z,61.69
2023-03-31T17:05:12.681Z,61.69
2023-03-31T17:07:42.488Z,61.76
2023-03-31T17:10:12.922Z,61.85
2023-03-31T17:12:41.398Z,62.12
2023-03-31T17:15:11.592Z,61.16
2023-03-31T17:17:41.649Z,61.74
2023-03-31T17:20:11.635Z,62.18
2023-03-31T17:22:40.786Z,62.66
2023-03-31T17:25:09.963Z,62.69
2023-03-31T17:27:38.920Z,62.79
2023-03-31T17:30:09.353Z,63.00
2023-03-31T17:32:38.375Z,62.82
2023-03-31T17:35:10.450Z,62.96
2023-03-31T17:37:39.234Z,62.86
2023-03-31T17:40:09.924Z,62.89
2023-03-31T17:42:39.505Z,62.97
2023-03-31T17:45:09.481Z,63.09
2023-03-31T17:47:38.026Z,62.90
2023-03-31T17:50:08.904Z,62.98
2023-03-31T17:52:37.604Z,63.16
2023-03-31T17:55:06.552Z,63.63
2023-03-31T17:57:36.797Z,63.32
2023-03-31T18:00:06.140Z,63.45
2023-03-31T18:02:34.473Z,63.28
2023-03-31T18:05:02.931Z,63.19
2023-03-31T18:07:33.150Z,63.14
2023-03-31T18:10:05.529Z,62.94
2023-03-31T18:12:34.530Z,63.35
2023-03-31T18:15:06.973Z,63.32
2023-03-31T18:17:35.342Z,62.22
2023-03-31T18:20:03.908Z,62.63
2023-03-31T18:22:34.288Z,62.93
2023-03-31T18:25:02.841Z,63.19
2023-03-31T18:27:31.182Z,63.36
2023-03-31T18:29:59.491Z,63.70
2023-03-31T18:32:28.575Z,63.43
2023-03-31T18:34:57.449Z,63.86
2023-03-31T18:37:25.875Z,63.70
2023-03-31T18:39:56.085Z,64.15
2023-03-31T18:42:26.055Z,63.90
2023-03-31T18:44:54.669Z,62.47
2023-03-31T18:47:23.504Z,62.03
2023-03-31T18:49:55.633Z,62.58
2023-03-31T18:52:24.120Z,63.27
2023-03-31T18:54:53.027Z,62.93
2023-03-31T18:57:22.844Z,63.38
2023-03-31T18:59:51.277Z,63.36
2023-03-31T19:02:19.977Z,63.75
2023-03-31T19:04:50.188Z,63.95
2023-03-31T19:07:18.917Z,63.46
2023-03-31T19:09:50.444Z,63.46
2023-03-31T19:12:18.920Z,64.01
2023-03-31T19:14:49.481Z,64.10
2023-03-31T19:17:19.945Z,63.94
2023-03-31T19:19:48.273Z,63.60
2023-03-31T19:22:17.094Z,63.51
2023-03-31T19:24:46.339Z,63.30
2023-03-31T19:27:14.684Z,63.57
2023-03-31T19:29:43.083Z,63.95
2023-03-31T19:32:12.835Z,64.59
2023-03-31T19:34:41.324Z,64.64
2023-03-31T19:37:10.042Z,64.84
2023-03-31T19:39:38.997Z,64.58
2023-03-31T19:42:07.465Z,65.11
2023-03-31T19:44:35.877Z,64.82
2023-03-31T19:47:04.220Z,65.02
2023-03-31T19:49:34.366Z,65.46
2023-03-31T19:52:04.238Z,65.05
2023-03-31T19:54:34.180Z,65.29
2023-03-31T19:57:03.798Z,65.63
2023-03-31T19:59:33.306Z,65.71
2023-03-31T20:02:04.651Z,65.79
2023-03-31T20:04:37.445Z,66.39
2023-03-31T20:07:06.502Z,66.62
2023-03-31T20:09:35.904Z,65.65
2023-03-31T20:12:04.597Z,65.80
2023-03-31T20:14:33.452Z,66.39
2023-03-31T20:17:03.645Z,66.70
2023-03-31T20:19:35.226Z,66.64
2023-03-31T20:22:04.280Z,66.43
2023-03-31T20:24:33.544Z,66.29
2023-03-31T20:27:01.988Z,66.19
2023-03-31T20:29:31.431Z,66.62
2023-03-31T20:31:59.763Z,67.09
2023-03-31T20:34:28.558Z,67.12
2023-03-31T20:36:59.338Z,67.26
2023-03-31T20:39:29.060Z,67.09
2023-03-31T20:41:58.388Z,66.96
2023-03-31T20:44:28.860Z,66.77
2023-03-31T20:46:59.560Z,66.83
2023-03-31T20:49:29.192Z,67.54
2023-03-31T20:52:00.374Z,67.47
2023-03-31T20:54:30.652Z,67.23
2023-03-31T20:57:01.548Z,67.49
2023-03-31T20:59:31.550Z,67.11
2023-03-31T21:02:03.760Z,67.38
2023-03-31T21:04:33.359Z,67.40
2023-03-31T21:07:04.370Z,67.43
2023-03-31T21:09:35.206Z,67.19
2023-03-31T21:12:05.454Z,67.34
2023-03-31T21:14:35.148Z,67.82
2023-03-31T21:17:04.965Z,67.54
2023-03-31T21:19:34.806Z,67.52
2023-03-31T21:22:05.797Z,67.44
2023-03-31T21:24:36.199Z,67.82
2023-03-31T21:27:06.165Z,66.91
2023-03-31T21:29:35.827Z,67.32
2023-03-31T21:32:07.536Z,67.76
2023-03-31T21:34:37.531Z,67.90
2023-03-31T21:37:09.181Z,67.48
2023-03-31T21:39:38.924Z,66.85
2023-03-31T21:42:08.371Z,67.04
2023-03-31T21:44:38.041Z,67.34
2023-03-31T21:47:09.720Z,66.71
2023-03-31T21:49:39.769Z,67.00
2023-03-31T21:52:10.993Z,67.20
2023-03-31T21:54:40.794Z,66.99
2023-03-31T21:57:09.408Z,66.60
2023-03-31T21:59:37.792Z,67.21
2023-03-31T22:02:06.711Z,67.24
2023-03-31T22:04:34.997Z,66.94
2023-03-31T22:07:03.510Z,67.23
2023-03-31T22:09:33.274Z,67.29
2023-03-31T22:12:02.333Z,67.65
2023-03-31T22:14:30.644Z,67.02
2023-03-31T22:16:58.929Z,67.40
2023-03-31T22:19:27.280Z,67.10
2023-03-31T22:21:55.642Z,66.59
2023-03-31T22:24:24.975Z,65.95
2023-03-31T22:26:54.660Z,67.11
2023-03-31T22:29:23.001Z,67.00
2023-03-31T22:31:51.416Z,67.48
2023-03-31T22:34:20.294Z,67.21
2023-03-31T22:36:48.950Z,67.40
2023-03-31T22:39:17.912Z,65.62
2023-03-31T22:41:47.385Z,65.95
2023-03-31T22:44:17.949Z,67.00
2023-03-31T22:46:47.224Z,67.19
2023-03-31T22:49:17.024Z,67.22
2023-03-31T22:51:45.349Z,67.48
2023-03-31T22:54:15.833Z,67.14
2023-03-31T22:56:45.638Z,67.51
2023-03-31T22:59:14.034Z,67.22
2023-03-31T23:01:47.066Z,67.38
2023-03-31T23:04:15.618Z,67.11
2023-03-31T23:06:43.957Z,66.27
2023-03-31T23:09:12.385Z,66.15
2023-03-31T23:11:40.926Z,67.06
2023-03-31T23:14:09.650Z,67.03
2023-03-31T23:16:38.076Z,66.37
2023-03-31T23:19:07.951Z,66.82
2023-03-31T23:21:36.782Z,67.18
2023-03-31T23:24:05.931Z,66.78
2023-03-31T23:26:35.629Z,66.87
2023-03-31T23:29:04.478Z,66.72
2023-03-31T23:31:34.153Z,65.77
2023-03-31T23:34:02.826Z,66.06
2023-03-31T23:36:32.570Z,66.16
2023-03-31T23:39:00.906Z,65.77
2023-03-31T23:41:29.240Z,66.19
2023-03-31T23:43:57.936Z,66.62
2023-03-31T23:46:27.047Z,66.58
2023-03-31T23:48:56.063Z,66.47
2023-03-31T23:51:25.010Z,66.36
2023-03-31T23:53:54.758Z,66.55
2023-03-31T23:56:23.065Z,66.55
2023-03-31T23:58:51.491Z,66.81
